Airport View

Enter AWOS ICAO identifier for current METAR.

ex. KFNL

PADL 191956Z 19005KT 10SM CLR 16/06 A2996

19 Aug 2019 20:41

Frequency: 125.0

Phone: 907-842-2137

Other Area AWOS: PFCL - PAMB - PANW - PFWS

TAF PADL 191721Z 1918/2018 02006KT P6SM SKC FM200500 VRB06KT P6SM -SHRA OVC050 FM201200 VRB03KT P6SM -RA OVC035